YSSYYMHB

Guest
Details From YSSY - Sydney Intl
To YMHB - Hobart
Flight Number -
Tags Generated
Created
Modified
Stats Distance 561 nm / 1,038 km
Max Altitude 0 ft / 0 m
Waypoints 3
Social Downloads 11
Likes 0
Share VATSIM

Download

Looking for another format? Having issues loading an existing format? Contact us
Advertisement - Login to hide

Notes

Generated

Route

YSSY MHBEH YMHB

ID Type Via Altitude Latitude Longitude Leg Dist Tot Dist Heading (true) Name
O YSSY APT - 0 ft / 0 m -33.94962˚ 151.18832˚ - 0 nm - -
MHBEH FIX - 0 ft / 0 m -42.81535˚ 147.50828˚ 559 nm 559 nm 197° / 199° -
O YMHB APT - 0 ft / 0 m -42.82898˚ 147.50206˚ 0 nm 560 nm 199° / 199° -

Altitude Profile

Advertisement - Login to hide

Weather


0- 5 10 15 20 25 30 35+ Temperature / ° C

Clouds and Precipitation
Forecast for 2017-12-18 00:00 UTC. Updated 11 minutes ago

Ground ~20,000 ft ~40,000 ft Winds

YSSY

Details ICAO YSSY (SYD)
Name Sydney Intl
Region Australia
Timezone Australia/Sydney (UTC+11.0)
Stats Elevation 21 ft / 6 m (AMSL)
Location -33.949273° 151.181347°
Runways 3
Magnetic Variation 12.599° E

METAR

YSSY 171900Z 00000KT 9999 FEW008 SCT019 BKN130 22/21 Q1013 NOSIG

Decode

TAF

TAF AMD YSSY 171445Z 1714/1818 06008KT 9999 BKN010 FM171800 03008KT 9999 BKN015 FM172000 03010KT 9999 SCT020 FM180000 07012KT 9999 FEW035 FM180400 05015G25KT 9999 SCT060 FM181000 02010KT 9999 FEW020 PROB30 TEMPO 1805/1810 3000 TSRA BKN012 SCT060CB

Decode

Departure Runways

ID Width Length Bearing (true) Bearing (mag) Surface Threshold Offset Overrun Length
07 148 ft / 45 m 8,285 ft / 2,525 m 74.13° 61.53° Asphalt 0 ft / 0 m 0 ft / 0 m
16L 148 ft / 45 m 8,018 ft / 2,444 m 167.81° 155.21° Asphalt 758 ft / 231 m 0 ft / 0 m
16R 148 ft / 45 m 13,033 ft / 3,973 m 167.86° 155.26° Asphalt 279 ft / 85 m 0 ft / 0 m
25 148 ft / 45 m 8,285 ft / 2,525 m 254.12° 241.52° Asphalt 324 ft / 99 m 0 ft / 0 m
34L 148 ft / 45 m 13,033 ft / 3,973 m 347.85° 335.25° Asphalt 0 ft / 0 m 0 ft / 0 m
34R 148 ft / 45 m 8,018 ft / 2,444 m 347.81° 335.21° Asphalt 125 ft / 38 m 0 ft / 0 m

YMHB

Details ICAO YMHB (HBA)
Name Hobart
Region Australia
Timezone Australia/Hobart (UTC+11.0)
Stats Elevation 12 ft / 4 m (AMSL)
Location -42.836167° 147.511798°
Runways 1
Magnetic Variation 15.099° E

METAR

YMHB 171900Z 23003KT CAVOK 12/10 Q1014

Decode

TAF

TAF YMHB 171719Z 1718/1818 35005KT CAVOK FM180200 15015KT CAVOK FM180900 08008KT 9999 SCT035

Decode

Destination Runways

ID Width Length Bearing (true) Bearing (mag) Surface Threshold Offset Overrun Length
12 148 ft / 45 m 7,379 ft / 2,249 m 135.11° 120.01° Asphalt 0 ft / 0 m 0 ft / 0 m
30 148 ft / 45 m 7,379 ft / 2,249 m 315.09° 299.99° Asphalt 0 ft / 0 m 0 ft / 0 m

Approach Navaids

Runway Type Ident Frequency Range Bearing (true) Bearing (mag) Slope Elevation
12 Localiser IHB 109.90 MHz 18 nm / 33 km 135.13° 120.03° - 12 ft / 4 m (AMSL)
12 Glidescope IHB 109.90 MHz 10 nm / 19 km 135.10° 120.00° 3.00° 12 ft / 4 m (AMSL)

Popular Alternatives